sensor_id;sensor_type;location;lat;lon;timestamp;noise_LAeq;noise_LA_min;noise_LA_max;noise_LA01;noise_LA95
56099;Laerm;44276;49.534;6.378;2023-12-20T00:00:06;43.97;42.76;47.95;;
56099;Laerm;44276;49.534;6.378;2023-12-20T00:02:34;43.97;42.64;51.05;;
56099;Laerm;44276;49.534;6.378;2023-12-20T00:05:03;43.97;42.88;51.17;;
56099;Laerm;44276;49.534;6.378;2023-12-20T00:07:33;44.00;42.82;52.56;;
56099;Laerm;44276;49.534;6.378;2023-12-20T00:10:01;43.99;42.71;48.29;;
56099;Laerm;44276;49.534;6.378;2023-12-20T00:12:30;43.99;42.71;47.52;;
56099;Laerm;44276;49.534;6.378;2023-12-20T00:14:58;43.99;42.59;47.18;;
56099;Laerm;44276;49.534;6.378;2023-12-20T00:17:26;44.01;42.82;45.57;;
56099;Laerm;44276;49.534;6.378;2023-12-20T00:19:54;43.97;42.88;47.24;;
56099;Laerm;44276;49.534;6.378;2023-12-20T00:22:22;43.98;42.71;46.66;;
56099;Laerm;44276;49.534;6.378;2023-12-20T00:24:52;43.97;42.76;47.91;;
56099;Laerm;44276;49.534;6.378;2023-12-20T00:27:20;43.97;42.76;44.97;;
56099;Laerm;44276;49.534;6.378;2023-12-20T00:29:48;43.97;42.82;45.86;;
56099;Laerm;44276;49.534;6.378;2023-12-20T00:32:17;43.96;42.76;46.05;;
56099;Laerm;44276;49.534;6.378;2023-12-20T00:34:45;43.98;42.69;45.60;;
56099;Laerm;44276;49.534;6.378;2023-12-20T00:37:13;43.98;42.82;46.84;;
56099;Laerm;44276;49.534;6.378;2023-12-20T00:39:42;43.97;42.82;45.86;;
56099;Laerm;44276;49.534;6.378;2023-12-20T00:42:12;43.98;42.88;45.20;;
56099;Laerm;44276;49.534;6.378;2023-12-20T00:44:40;43.98;42.76;45.14;;
56099;Laerm;44276;49.534;6.378;2023-12-20T00:47:08;43.98;42.76;45.11;;
56099;Laerm;44276;49.534;6.378;2023-12-20T00:49:37;43.98;42.82;45.23;;
56099;Laerm;44276;49.534;6.378;2023-12-20T00:52:05;43.97;42.88;45.23;;
56099;Laerm;44276;49.534;6.378;2023-12-20T00:54:34;43.98;42.88;45.17;;
56099;Laerm;44276;49.534;6.378;2023-12-20T00:57:02;43.98;42.76;45.11;;
56099;Laerm;44276;49.534;6.378;2023-12-20T00:59:32;43.96;42.82;45.11;;
56099;Laerm;44276;49.534;6.378;2023-12-20T01:02:00;43.96;42.65;44.94;;
56099;Laerm;44276;49.534;6.378;2023-12-20T01:04:28;43.95;42.76;45.14;;
56099;Laerm;44276;49.534;6.378;2023-12-20T01:06:57;43.96;42.71;45.01;;
56099;Laerm;44276;49.534;6.378;2023-12-20T01:09:25;44.02;42.82;45.33;;
56099;Laerm;44276;49.534;6.378;2023-12-20T01:11:54;43.98;42.76;45.07;;
56099;Laerm;44276;49.534;6.378;2023-12-20T01:14:22;43.97;42.59;45.01;;
56099;Laerm;44276;49.534;6.378;2023-12-20T01:16:52;43.96;42.65;44.94;;
56099;Laerm;44276;49.534;6.378;2023-12-20T01:19:20;43.96;42.88;45.07;;
56099;Laerm;44276;49.534;6.378;2023-12-20T01:21:48;43.97;42.59;45.07;;
56099;Laerm;44276;49.534;6.378;2023-12-20T01:24:17;43.97;42.82;45.07;;
56099;Laerm;44276;49.534;6.378;2023-12-20T01:26:45;43.96;42.82;45.04;;
56099;Laerm;44276;49.534;6.378;2023-12-20T01:29:13;43.96;42.65;45.04;;
56099;Laerm;44276;49.534;6.378;2023-12-20T01:31:42;43.97;42.71;45.04;;
56099;Laerm;44276;49.534;6.378;2023-12-20T01:34:12;43.97;42.71;45.27;;
56099;Laerm;44276;49.534;6.378;2023-12-20T01:36:40;43.97;42.53;45.07;;
56099;Laerm;44276;49.534;6.378;2023-12-20T01:39:08;43.96;42.76;45.20;;
56099;Laerm;44276;49.534;6.378;2023-12-20T01:41:51;43.96;42.71;45.04;;
56099;Laerm;44276;49.534;6.378;2023-12-20T01:44:19;44.00;42.59;45.04;;
56099;Laerm;44276;49.534;6.378;2023-12-20T01:46:48;43.98;42.59;45.17;;
56099;Laerm;44276;49.534;6.378;2023-12-20T01:49:17;43.98;42.76;45.11;;
56099;Laerm;44276;49.534;6.378;2023-12-20T01:51:46;43.97;42.71;45.04;;
56099;Laerm;44276;49.534;6.378;2023-12-20T01:54:14;43.97;42.69;44.97;;
56099;Laerm;44276;49.534;6.378;2023-12-20T01:56:43;43.97;42.65;45.17;;
56099;Laerm;44276;49.534;6.378;2023-12-20T01:59:12;43.97;42.88;45.14;;
56099;Laerm;44276;49.534;6.378;2023-12-20T02:01:40;43.98;42.76;44.94;;
56099;Laerm;44276;49.534;6.378;2023-12-20T02:04:09;43.97;42.71;45.17;;
56099;Laerm;44276;49.534;6.378;2023-12-20T02:06:40;43.97;42.59;45.27;;
56099;Laerm;44276;49.534;6.378;2023-12-20T02:09:08;43.98;42.88;45.07;;
56099;Laerm;44276;49.534;6.378;2023-12-20T02:11:37;43.99;42.82;45.17;;
56099;Laerm;44276;49.534;6.378;2023-12-20T02:14:06;43.99;42.76;45.07;;
56099;Laerm;44276;49.534;6.378;2023-12-20T02:16:34;44.00;42.88;45.51;;
56099;Laerm;44276;49.534;6.378;2023-12-20T02:19:06;43.97;42.76;44.90;;
56099;Laerm;44276;49.534;6.378;2023-12-20T02:21:39;43.99;42.76;45.07;;
56099;Laerm;44276;49.534;6.378;2023-12-20T02:24:08;43.98;42.76;45.20;;
56099;Laerm;44276;49.534;6.378;2023-12-20T02:26:36;43.98;42.76;45.17;;
56099;Laerm;44276;49.534;6.378;2023-12-20T02:29:04;43.99;42.76;45.07;;
56099;Laerm;44276;49.534;6.378;2023-12-20T02:31:32;44.00;42.71;45.27;;
56099;Laerm;44276;49.534;6.378;2023-12-20T02:34:01;43.98;42.53;45.04;;
56099;Laerm;44276;49.534;6.378;2023-12-20T02:36:29;43.98;42.76;45.17;;
56099;Laerm;44276;49.534;6.378;2023-12-20T02:38:58;43.99;42.71;45.20;;
56099;Laerm;44276;49.534;6.378;2023-12-20T02:41:26;43.99;42.71;45.04;;
56099;Laerm;44276;49.534;6.378;2023-12-20T02:43:55;43.99;42.93;45.11;;
56099;Laerm;44276;49.534;6.378;2023-12-20T02:46:23;43.99;42.74;45.17;;
56099;Laerm;44276;49.534;6.378;2023-12-20T02:48:51;43.98;42.76;45.07;;
56099;Laerm;44276;49.534;6.378;2023-12-20T02:51:20;43.98;42.93;44.97;;
56099;Laerm;44276;49.534;6.378;2023-12-20T02:53:48;43.97;42.47;45.01;;
56099;Laerm;44276;49.534;6.378;2023-12-20T02:56:17;43.96;42.59;45.07;;
56099;Laerm;44276;49.534;6.378;2023-12-20T02:58:45;43.96;42.53;44.97;;
56099;Laerm;44276;49.534;6.378;2023-12-20T03:01:13;43.96;42.88;44.97;;
56099;Laerm;44276;49.534;6.378;2023-12-20T03:03:42;43.97;42.53;45.07;;
56099;Laerm;44276;49.534;6.378;2023-12-20T03:06:10;43.95;42.76;45.07;;
56099;Laerm;44276;49.534;6.378;2023-12-20T03:08:38;43.96;42.82;45.11;;
56099;Laerm;44276;49.534;6.378;2023-12-20T03:11:07;43.95;42.71;45.01;;
56099;Laerm;44276;49.534;6.378;2023-12-20T03:13:37;43.94;42.76;45.14;;
56099;Laerm;44276;49.534;6.378;2023-12-20T03:16:08;43.92;42.65;45.01;;
56099;Laerm;44276;49.534;6.378;2023-12-20T03:18:37;44.05;42.71;65.23;;
56099;Laerm;44276;49.534;6.378;2023-12-20T03:21:06;43.86;42.29;45.01;;
56099;Laerm;44276;49.534;6.378;2023-12-20T03:23:34;43.86;42.47;44.80;;
56099;Laerm;44276;49.534;6.378;2023-12-20T03:26:02;43.87;42.59;44.90;;
56099;Laerm;44276;49.534;6.378;2023-12-20T03:28:31;43.88;42.59;44.87;;
56099;Laerm;44276;49.534;6.378;2023-12-20T03:31:00;43.89;42.65;44.94;;
56099;Laerm;44276;49.534;6.378;2023-12-20T03:33:30;43.89;42.82;45.01;;
56099;Laerm;44276;49.534;6.378;2023-12-20T03:35:58;43.88;42.71;44.90;;
56099;Laerm;44276;49.534;6.378;2023-12-20T03:38:26;43.89;42.76;44.97;;
56099;Laerm;44276;49.534;6.378;2023-12-20T03:40:54;43.89;42.53;44.94;;
56099;Laerm;44276;49.534;6.378;2023-12-20T03:43:22;43.91;42.65;45.04;;
56099;Laerm;44276;49.534;6.378;2023-12-20T03:45:50;43.89;42.35;45.14;;
56099;Laerm;44276;49.534;6.378;2023-12-20T03:48:20;43.87;42.47;44.90;;
56099;Laerm;44276;49.534;6.378;2023-12-20T03:50:48;43.86;42.65;45.01;;
56099;Laerm;44276;49.534;6.378;2023-12-20T03:53:16;43.84;42.59;45.04;;
56099;Laerm;44276;49.534;6.378;2023-12-20T03:55:45;43.82;42.47;44.87;;
56099;Laerm;44276;49.534;6.378;2023-12-20T03:58:13;43.80;42.29;44.83;;
56099;Laerm;44276;49.534;6.378;2023-12-20T04:00:41;44.23;42.53;70.21;;
56099;Laerm;44276;49.534;6.378;2023-12-20T04:03:09;43.79;42.47;44.76;;
56099;Laerm;44276;49.534;6.378;2023-12-20T04:05:41;43.78;42.53;44.80;;
56099;Laerm;44276;49.534;6.378;2023-12-20T04:08:10;43.76;42.53;44.90;;
56099;Laerm;44276;49.534;6.378;2023-12-20T04:10:38;43.76;42.53;44.76;;
56099;Laerm;44276;49.534;6.378;2023-12-20T04:13:06;43.74;42.29;44.73;;
56099;Laerm;44276;49.534;6.378;2023-12-20T04:15:34;43.73;42.47;46.50;;
56099;Laerm;44276;49.534;6.378;2023-12-20T04:18:03;43.79;42.35;60.23;;
56099;Laerm;44276;49.534;6.378;2023-12-20T04:20:31;43.73;42.29;44.69;;
56099;Laerm;44276;49.534;6.378;2023-12-20T04:23:01;43.72;42.47;44.80;;
56099;Laerm;44276;49.534;6.378;2023-12-20T04:25:29;43.73;42.53;44.76;;
56099;Laerm;44276;49.534;6.378;2023-12-20T04:27:57;43.73;42.47;44.87;;
56099;Laerm;44276;49.534;6.378;2023-12-20T04:30:25;43.75;42.59;44.90;;
56099;Laerm;44276;49.534;6.378;2023-12-20T04:32:54;43.75;42.47;44.94;;
56099;Laerm;44276;49.534;6.378;2023-12-20T04:35:22;43.76;42.35;44.83;;
56099;Laerm;44276;49.534;6.378;2023-12-20T04:37:49;43.76;42.47;44.83;;
56099;Laerm;44276;49.534;6.378;2023-12-20T04:40:19;43.76;42.35;44.73;;
56099;Laerm;44276;49.534;6.378;2023-12-20T04:42:47;43.73;42.35;44.76;;
56099;Laerm;44276;49.534;6.378;2023-12-20T04:45:15;43.70;42.41;49.94;;
56099;Laerm;44276;49.534;6.378;2023-12-20T04:47:44;43.68;42.35;44.80;;
56099;Laerm;44276;49.534;6.378;2023-12-20T04:50:14;43.69;42.22;44.69;;
56099;Laerm;44276;49.534;6.378;2023-12-20T04:52:43;43.68;42.16;44.73;;
56099;Laerm;44276;49.534;6.378;2023-12-20T04:55:11;43.69;42.53;44.97;;
56099;Laerm;44276;49.534;6.378;2023-12-20T04:57:40;43.68;42.41;44.80;;
56099;Laerm;44276;49.534;6.378;2023-12-20T05:00:11;43.68;42.47;44.83;;
56099;Laerm;44276;49.534;6.378;2023-12-20T05:02:42;43.66;42.35;44.65;;
56099;Laerm;44276;49.534;6.378;2023-12-20T05:05:10;43.66;42.35;44.80;;
56099;Laerm;44276;49.534;6.378;2023-12-20T05:07:38;43.66;42.41;44.80;;
56099;Laerm;44276;49.534;6.378;2023-12-20T05:10:08;43.66;42.35;44.83;;
56099;Laerm;44276;49.534;6.378;2023-12-20T05:12:36;43.66;42.41;44.76;;
56099;Laerm;44276;49.534;6.378;2023-12-20T05:15:07;43.66;42.22;44.73;;
56099;Laerm;44276;49.534;6.378;2023-12-20T05:17:35;43.68;42.29;44.76;;
56099;Laerm;44276;49.534;6.378;2023-12-20T05:20:05;43.69;42.16;44.87;;
56099;Laerm;44276;49.534;6.378;2023-12-20T05:22:34;43.72;42.53;44.76;;
56099;Laerm;44276;49.534;6.378;2023-12-20T05:25:03;43.72;42.47;44.69;;
56099;Laerm;44276;49.534;6.378;2023-12-20T05:27:31;43.73;42.59;45.07;;
56099;Laerm;44276;49.534;6.378;2023-12-20T05:30:00;43.75;42.53;44.76;;
56099;Laerm;44276;49.534;6.378;2023-12-20T05:32:29;43.77;42.41;44.97;;
56099;Laerm;44276;49.534;6.378;2023-12-20T05:34:58;43.78;42.59;44.80;;
56099;Laerm;44276;49.534;6.378;2023-12-20T05:37:26;43.80;42.41;44.94;;
56099;Laerm;44276;49.534;6.378;2023-12-20T05:39:54;43.80;42.59;45.11;;
56099;Laerm;44276;49.534;6.378;2023-12-20T05:42:23;43.81;42.65;44.80;;
56099;Laerm;44276;49.534;6.378;2023-12-20T05:44:51;43.83;42.53;44.97;;
56099;Laerm;44276;49.534;6.378;2023-12-20T05:47:21;43.84;42.29;45.01;;
56099;Laerm;44276;49.534;6.378;2023-12-20T05:49:51;43.85;42.71;45.01;;
56099;Laerm;44276;49.534;6.378;2023-12-20T05:52:19;43.85;42.41;44.90;;
56099;Laerm;44276;49.534;6.378;2023-12-20T05:54:48;43.85;42.41;44.97;;
56099;Laerm;44276;49.534;6.378;2023-12-20T05:57:16;43.86;42.65;45.01;;
56099;Laerm;44276;49.534;6.378;2023-12-20T05:59:44;43.86;42.59;45.01;;
56099;Laerm;44276;49.534;6.378;2023-12-20T06:02:12;43.85;42.65;44.90;;
56099;Laerm;44276;49.534;6.378;2023-12-20T06:04:42;43.86;42.47;44.94;;
56099;Laerm;44276;49.534;6.378;2023-12-20T06:07:13;43.85;42.59;45.04;;
56099;Laerm;44276;49.534;6.378;2023-12-20T06:09:41;43.86;42.65;44.83;;
56099;Laerm;44276;49.534;6.378;2023-12-20T06:12:10;43.86;42.59;45.04;;
56099;Laerm;44276;49.534;6.378;2023-12-20T06:14:38;43.86;42.65;44.97;;
56099;Laerm;44276;49.534;6.378;2023-12-20T06:17:06;43.86;42.59;45.14;;
56099;Laerm;44276;49.534;6.378;2023-12-20T06:19:34;43.85;42.65;44.80;;
56099;Laerm;44276;49.534;6.378;2023-12-20T06:22:03;43.85;42.47;45.07;;
56099;Laerm;44276;49.534;6.378;2023-12-20T06:24:32;43.84;42.65;45.04;;
56099;Laerm;44276;49.534;6.378;2023-12-20T06:27:03;43.84;42.41;45.01;;
56099;Laerm;44276;49.534;6.378;2023-12-20T06:29:31;43.84;42.41;45.01;;
56099;Laerm;44276;49.534;6.378;2023-12-20T06:31:59;43.85;42.65;45.07;;
56099;Laerm;44276;49.534;6.378;2023-12-20T06:34:27;43.85;42.65;45.11;;
56099;Laerm;44276;49.534;6.378;2023-12-20T06:36:55;43.85;42.71;44.87;;
56099;Laerm;44276;49.534;6.378;2023-12-20T06:39:23;43.84;42.76;44.94;;
56099;Laerm;44276;49.534;6.378;2023-12-20T06:41:53;43.84;42.35;44.94;;
56099;Laerm;44276;49.534;6.378;2023-12-20T06:44:21;43.84;42.59;44.94;;
56099;Laerm;44276;49.534;6.378;2023-12-20T06:46:49;43.85;42.59;45.01;;
56099;Laerm;44276;49.534;6.378;2023-12-20T06:49:17;43.83;42.29;45.17;;
56099;Laerm;44276;49.534;6.378;2023-12-20T06:51:46;43.85;42.36;45.14;;
56099;Laerm;44276;49.534;6.378;2023-12-20T06:54:14;43.84;42.76;45.07;;
56099;Laerm;44276;49.534;6.378;2023-12-20T06:56:42;43.85;42.35;44.97;;
56099;Laerm;44276;49.534;6.378;2023-12-20T06:59:12;43.84;42.53;44.97;;
56099;Laerm;44276;49.534;6.378;2023-12-20T07:01:41;43.83;42.53;45.11;;
56099;Laerm;44276;49.534;6.378;2023-12-20T07:04:09;43.83;42.65;44.83;;
56099;Laerm;44276;49.534;6.378;2023-12-20T07:06:37;43.84;42.35;44.87;;
56099;Laerm;44276;49.534;6.378;2023-12-20T07:09:06;43.84;42.53;45.07;;
56099;Laerm;44276;49.534;6.378;2023-12-20T07:11:34;43.84;42.47;45.07;;
56099;Laerm;44276;49.534;6.378;2023-12-20T07:14:02;43.84;42.41;44.97;;
56099;Laerm;44276;49.534;6.378;2023-12-20T07:16:32;43.84;42.53;44.94;;
56099;Laerm;44276;49.534;6.378;2023-12-20T07:19:00;43.83;42.59;44.83;;
56099;Laerm;44276;49.534;6.378;2023-12-20T07:21:28;43.83;42.65;44.87;;
56099;Laerm;44276;49.534;6.378;2023-12-20T07:23:56;43.84;42.47;44.97;;
56099;Laerm;44276;49.534;6.378;2023-12-20T07:26:25;43.83;42.59;45.07;;
56099;Laerm;44276;49.534;6.378;2023-12-20T07:28:53;43.84;42.76;44.83;;
56099;Laerm;44276;49.534;6.378;2023-12-20T07:31:21;43.83;42.53;44.87;;
56099;Laerm;44276;49.534;6.378;2023-12-20T07:33:52;43.84;42.59;44.90;;
56099;Laerm;44276;49.534;6.378;2023-12-20T07:36:21;43.84;42.41;44.92;;
56099;Laerm;44276;49.534;6.378;2023-12-20T07:38:49;43.85;42.47;44.94;;
56099;Laerm;44276;49.534;6.378;2023-12-20T07:41:17;43.84;42.53;44.97;;
56099;Laerm;44276;49.534;6.378;2023-12-20T07:43:48;43.85;42.65;45.14;;
56099;Laerm;44276;49.534;6.378;2023-12-20T07:46:16;43.84;42.59;45.07;;
56099;Laerm;44276;49.534;6.378;2023-12-20T07:48:45;43.85;42.53;44.95;;
56099;Laerm;44276;49.534;6.378;2023-12-20T07:51:15;43.84;42.41;45.27;;
56099;Laerm;44276;49.534;6.378;2023-12-20T07:53:44;43.85;42.65;44.90;;
56099;Laerm;44276;49.534;6.378;2023-12-20T07:56:16;43.86;42.59;44.90;;
56099;Laerm;44276;49.534;6.378;2023-12-20T07:58:45;43.84;42.35;44.87;;
56099;Laerm;44276;49.534;6.378;2023-12-20T08:01:20;43.84;42.53;44.97;;
56099;Laerm;44276;49.534;6.378;2023-12-20T08:03:49;43.83;42.53;44.90;;
56099;Laerm;44276;49.534;6.378;2023-12-20T08:06:21;43.82;42.53;45.01;;
56099;Laerm;44276;49.534;6.378;2023-12-20T08:08:49;43.85;42.65;44.90;;
56099;Laerm;44276;49.534;6.378;2023-12-20T08:11:28;43.85;42.47;45.11;;
56099;Laerm;44276;49.534;6.378;2023-12-20T08:13:56;43.83;42.47;44.87;;
56099;Laerm;44276;49.534;6.378;2023-12-20T08:16:25;43.84;42.41;44.80;;
56099;Laerm;44276;49.534;6.378;2023-12-20T08:18:53;43.85;42.65;44.80;;
56099;Laerm;44276;49.534;6.378;2023-12-20T08:21:23;43.84;42.35;44.87;;
56099;Laerm;44276;49.534;6.378;2023-12-20T08:23:51;43.85;42.47;45.04;;
56099;Laerm;44276;49.534;6.378;2023-12-20T08:26:20;43.86;42.53;45.04;;
56099;Laerm;44276;49.534;6.378;2023-12-20T08:28:49;43.86;42.22;44.94;;
56099;Laerm;44276;49.534;6.378;2023-12-20T08:31:19;43.86;42.53;44.90;;
56099;Laerm;44276;49.534;6.378;2023-12-20T08:33:49;43.88;42.65;45.04;;
56099;Laerm;44276;49.534;6.378;2023-12-20T08:36:18;43.87;42.58;44.83;;
56099;Laerm;44276;49.534;6.378;2023-12-20T08:38:49;43.88;42.65;45.01;;
56099;Laerm;44276;49.534;6.378;2023-12-20T08:41:18;43.86;42.35;44.90;;
56099;Laerm;44276;49.534;6.378;2023-12-20T08:43:47;43.87;42.41;44.90;;
56099;Laerm;44276;49.534;6.378;2023-12-20T08:46:15;43.88;42.47;45.07;;
56099;Laerm;44276;49.534;6.378;2023-12-20T08:48:44;43.88;42.41;44.97;;
56099;Laerm;44276;49.534;6.378;2023-12-20T08:51:13;43.89;42.35;45.14;;
56099;Laerm;44276;49.534;6.378;2023-12-20T08:53:41;43.88;42.65;44.94;;
56099;Laerm;44276;49.534;6.378;2023-12-20T08:56:13;43.89;42.76;44.97;;
56099;Laerm;44276;49.534;6.378;2023-12-20T08:58:42;43.89;42.71;44.97;;
56099;Laerm;44276;49.534;6.378;2023-12-20T09:01:10;43.89;42.53;45.04;;
56099;Laerm;44276;49.534;6.378;2023-12-20T09:03:39;43.90;42.71;45.01;;
56099;Laerm;44276;49.534;6.378;2023-12-20T09:06:07;43.89;42.65;45.04;;
56099;Laerm;44276;49.534;6.378;2023-12-20T09:08:36;43.88;42.53;44.94;;
56099;Laerm;44276;49.534;6.378;2023-12-20T09:11:04;43.87;42.65;44.83;;
56099;Laerm;44276;49.534;6.378;2023-12-20T09:13:34;43.89;42.69;45.04;;
56099;Laerm;44276;49.534;6.378;2023-12-20T09:16:03;43.90;42.65;44.94;;
56099;Laerm;44276;49.534;6.378;2023-12-20T09:18:31;43.92;42.53;45.01;;
56099;Laerm;44276;49.534;6.378;2023-12-20T09:21:00;43.93;42.88;45.01;;
56099;Laerm;44276;49.534;6.378;2023-12-20T09:23:29;43.92;42.53;44.90;;
56099;Laerm;44276;49.534;6.378;2023-12-20T09:25:57;43.94;42.65;45.07;;
56099;Laerm;44276;49.534;6.378;2023-12-20T09:28:25;43.94;42.76;45.14;;
56099;Laerm;44276;49.534;6.378;2023-12-20T09:30:54;43.95;42.71;45.11;;
56099;Laerm;44276;49.534;6.378;2023-12-20T09:33:23;43.95;42.69;45.11;;
56099;Laerm;44276;49.534;6.378;2023-12-20T09:35:51;43.95;42.53;45.07;;
56099;Laerm;44276;49.534;6.378;2023-12-20T09:38:20;43.94;42.41;44.97;;
56099;Laerm;44276;49.534;6.378;2023-12-20T09:40:49;43.97;42.71;45.07;;
56099;Laerm;44276;49.534;6.378;2023-12-20T09:43:20;43.94;42.76;45.04;;
56099;Laerm;44276;49.534;6.378;2023-12-20T09:45:54;43.93;42.35;45.27;;
56099;Laerm;44276;49.534;6.378;2023-12-20T09:48:26;43.92;42.58;45.17;;
56099;Laerm;44276;49.534;6.378;2023-12-20T09:50:56;43.93;42.71;44.94;;
56099;Laerm;44276;49.534;6.378;2023-12-20T09:53:25;43.93;42.65;45.01;;
56099;Laerm;44276;49.534;6.378;2023-12-20T09:55:58;43.93;42.41;45.20;;
56099;Laerm;44276;49.534;6.378;2023-12-20T09:58:28;43.94;42.59;45.07;;
56099;Laerm;44276;49.534;6.378;2023-12-20T10:00:58;43.92;42.65;45.07;;
56099;Laerm;44276;49.534;6.378;2023-12-20T10:03:27;43.94;42.71;45.14;;
56099;Laerm;44276;49.534;6.378;2023-12-20T10:05:57;43.93;42.69;45.17;;
56099;Laerm;44276;49.534;6.378;2023-12-20T10:08:27;43.93;42.71;44.97;;
56099;Laerm;44276;49.534;6.378;2023-12-20T10:10:57;43.92;42.76;45.04;;
56099;Laerm;44276;49.534;6.378;2023-12-20T10:13:29;43.92;42.71;45.17;;
56099;Laerm;44276;49.534;6.378;2023-12-20T10:15:59;43.92;42.65;45.01;;
56099;Laerm;44276;49.534;6.378;2023-12-20T10:18:29;43.93;42.59;44.97;;
56099;Laerm;44276;49.534;6.378;2023-12-20T10:21:06;43.96;42.74;45.11;;
56099;Laerm;44276;49.534;6.378;2023-12-20T10:23:34;43.95;42.59;44.97;;
56099;Laerm;44276;49.534;6.378;2023-12-20T10:26:02;44.25;42.76;68.55;;
56099;Laerm;44276;49.534;6.378;2023-12-20T10:28:33;44.00;42.95;45.54;;
56099;Laerm;44276;49.534;6.378;2023-12-20T10:31:04;44.01;42.53;45.89;;
56099;Laerm;44276;49.534;6.378;2023-12-20T10:33:32;43.98;42.53;44.90;;
56099;Laerm;44276;49.534;6.378;2023-12-20T10:36:02;43.99;42.65;45.04;;
56099;Laerm;44276;49.534;6.378;2023-12-20T10:38:31;44.00;42.82;45.72;;
56099;Laerm;44276;49.534;6.378;2023-12-20T10:41:01;44.01;42.82;45.37;;
56099;Laerm;44276;49.534;6.378;2023-12-20T10:43:33;43.98;42.71;45.04;;
56099;Laerm;44276;49.534;6.378;2023-12-20T10:46:05;43.98;42.76;45.17;;
56099;Laerm;44276;49.534;6.378;2023-12-20T10:48:35;43.95;42.76;45.04;;
56099;Laerm;44276;49.534;6.378;2023-12-20T10:51:05;43.96;42.88;44.90;;
56099;Laerm;44276;49.534;6.378;2023-12-20T10:53:36;43.98;42.65;45.01;;
56099;Laerm;44276;49.534;6.378;2023-12-20T10:56:08;43.96;42.76;44.97;;
56099;Laerm;44276;49.534;6.378;2023-12-20T10:58:41;43.97;42.76;45.48;;
56099;Laerm;44276;49.534;6.378;2023-12-20T11:01:14;43.97;42.82;45.07;;
56099;Laerm;44276;49.534;6.378;2023-12-20T11:03:48;44.00;42.59;45.63;;
56099;Laerm;44276;49.534;6.378;2023-12-20T11:06:33;43.97;42.76;45.04;;
56099;Laerm;44276;49.534;6.378;2023-12-20T11:09:14;44.01;42.47;48.05;;
56099;Laerm;44276;49.534;6.378;2023-12-20T11:12:05;43.98;42.71;45.72;;
56099;Laerm;44276;49.534;6.378;2023-12-20T11:14:43;43.98;42.76;45.14;;
56099;Laerm;44276;49.534;6.378;2023-12-20T11:17:15;43.98;42.82;45.04;;
56099;Laerm;44276;49.534;6.378;2023-12-20T11:20:07;44.00;42.41;45.04;;
56099;Laerm;44276;49.534;6.378;2023-12-20T11:22:52;43.97;42.59;45.01;;
56099;Laerm;44276;49.534;6.378;2023-12-20T11:25:21;44.00;42.76;45.57;;
56099;Laerm;44276;49.534;6.378;2023-12-20T11:28:09;44.02;42.71;45.48;;
56099;Laerm;44276;49.534;6.378;2023-12-20T11:30:42;44.05;42.59;46.43;;
56099;Laerm;44276;49.534;6.378;2023-12-20T11:33:13;44.03;42.65;45.72;;
56099;Laerm;44276;49.534;6.378;2023-12-20T11:35:42;44.01;42.88;46.02;;
56099;Laerm;44276;49.534;6.378;2023-12-20T11:38:11;44.00;42.65;45.48;;
56099;Laerm;44276;49.534;6.378;2023-12-20T11:40:42;44.11;42.88;50.55;;
56099;Laerm;44276;49.534;6.378;2023-12-20T11:43:10;44.02;42.65;45.27;;
56099;Laerm;44276;49.534;6.378;2023-12-20T11:45:49;43.99;42.59;45.04;;
56099;Laerm;44276;49.534;6.378;2023-12-20T11:48:20;43.95;42.59;45.23;;
56099;Laerm;44276;49.534;6.378;2023-12-20T11:50:49;43.96;42.71;45.11;;
56099;Laerm;44276;49.534;6.378;2023-12-20T11:53:17;43.96;42.71;45.07;;
56099;Laerm;44276;49.534;6.378;2023-12-20T11:55:48;43.99;42.82;45.54;;
56099;Laerm;44276;49.534;6.378;2023-12-20T11:58:17;44.03;42.82;45.17;;
56099;Laerm;44276;49.534;6.378;2023-12-20T12:00:45;43.97;42.65;45.04;;
56099;Laerm;44276;49.534;6.378;2023-12-20T12:03:15;43.96;42.76;44.97;;
56099;Laerm;44276;49.534;6.378;2023-12-20T12:05:47;43.98;42.53;45.04;;
56099;Laerm;44276;49.534;6.378;2023-12-20T12:08:16;43.97;42.71;44.90;;
56099;Laerm;44276;49.534;6.378;2023-12-20T12:10:46;43.98;42.71;45.20;;
56099;Laerm;44276;49.534;6.378;2023-12-20T12:13:14;43.98;42.93;45.33;;
56099;Laerm;44276;49.534;6.378;2023-12-20T12:15:43;43.97;42.69;45.14;;
56099;Laerm;44276;49.534;6.378;2023-12-20T12:18:15;44.01;42.71;45.27;;
56099;Laerm;44276;49.534;6.378;2023-12-20T12:20:45;43.96;42.76;45.20;;
56099;Laerm;44276;49.534;6.378;2023-12-20T12:23:14;43.97;42.71;45.14;;
56099;Laerm;44276;49.534;6.378;2023-12-20T12:25:44;43.98;42.65;44.97;;
56099;Laerm;44276;49.534;6.378;2023-12-20T12:28:13;43.98;42.65;45.04;;
56099;Laerm;44276;49.534;6.378;2023-12-20T12:30:42;43.99;42.76;45.14;;
56099;Laerm;44276;49.534;6.378;2023-12-20T12:33:20;43.99;42.65;45.14;;
56099;Laerm;44276;49.534;6.378;2023-12-20T12:35:50;43.98;42.53;45.48;;
56099;Laerm;44276;49.534;6.378;2023-12-20T12:38:20;44.00;42.71;45.11;;
56099;Laerm;44276;49.534;6.378;2023-12-20T12:40:49;43.98;42.47;45.14;;
56099;Laerm;44276;49.534;6.378;2023-12-20T12:43:17;43.97;42.74;45.07;;
56099;Laerm;44276;49.534;6.378;2023-12-20T12:45:46;43.95;42.82;44.94;;
56099;Laerm;44276;49.534;6.378;2023-12-20T12:48:14;43.96;42.82;44.94;;
56099;Laerm;44276;49.534;6.378;2023-12-20T12:50:43;43.98;42.76;45.04;;
56099;Laerm;44276;49.534;6.378;2023-12-20T12:53:12;43.97;42.65;45.01;;
56099;Laerm;44276;49.534;6.378;2023-12-20T12:55:40;43.99;42.65;45.45;;
56099;Laerm;44276;49.534;6.378;2023-12-20T12:58:08;44.00;42.76;45.14;;
56099;Laerm;44276;49.534;6.378;2023-12-20T13:00:37;44.05;42.65;45.63;;
56099;Laerm;44276;49.534;6.378;2023-12-20T13:03:05;43.96;42.59;44.94;;
56099;Laerm;44276;49.534;6.378;2023-12-20T13:05:36;44.01;42.71;45.77;;
56099;Laerm;44276;49.534;6.378;2023-12-20T13:08:08;44.06;42.93;45.83;;
56099;Laerm;44276;49.534;6.378;2023-12-20T13:10:40;43.97;42.71;45.01;;
56099;Laerm;44276;49.534;6.378;2023-12-20T13:13:08;44.01;42.59;45.33;;
56099;Laerm;44276;49.534;6.378;2023-12-20T13:15:39;43.97;42.59;45.20;;
56099;Laerm;44276;49.534;6.378;2023-12-20T13:18:07;44.05;42.76;47.79;;
56099;Laerm;44276;49.534;6.378;2023-12-20T13:20:36;44.03;42.76;45.91;;
56099;Laerm;44276;49.534;6.378;2023-12-20T13:23:07;43.99;42.76;45.17;;
56099;Laerm;44276;49.534;6.378;2023-12-20T13:25:35;44.02;42.71;45.45;;
56099;Laerm;44276;49.534;6.378;2023-12-20T13:28:05;44.06;42.82;45.63;;
56099;Laerm;44276;49.534;6.378;2023-12-20T13:30:34;43.98;42.71;45.04;;
56099;Laerm;44276;49.534;6.378;2023-12-20T13:33:03;44.02;42.59;46.62;;
56099;Laerm;44276;49.534;6.378;2023-12-20T13:35:32;44.03;42.82;46.52;;
56099;Laerm;44276;49.534;6.378;2023-12-20T13:38:01;43.99;42.65;45.86;;
56099;Laerm;44276;49.534;6.378;2023-12-20T13:40:29;43.96;42.65;45.36;;
56099;Laerm;44276;49.534;6.378;2023-12-20T13:42:58;44.00;42.65;45.23;;
56099;Laerm;44276;49.534;6.378;2023-12-20T13:45:27;43.96;42.71;44.94;;
56099;Laerm;44276;49.534;6.378;2023-12-20T13:47:55;43.96;42.82;45.57;;
56099;Laerm;44276;49.534;6.378;2023-12-20T13:50:23;43.95;42.47;45.20;;
56099;Laerm;44276;49.534;6.378;2023-12-20T13:52:53;43.94;42.42;45.04;;
56099;Laerm;44276;49.534;6.378;2023-12-20T13:55:21;43.94;42.71;45.11;;